sensor_id;sensor_type;location;lat;lon;timestamp;pressure;altitude;pressure_sealevel;temperature;humidity
47054;BME280;32811;52.382;5.270;2023-03-03T00:01:27;102653.19;;;1.93;100.00
47054;BME280;32811;52.382;5.270;2023-03-03T00:03:54;102647.97;;;1.92;100.00
47054;BME280;32811;52.382;5.270;2023-03-03T00:06:21;102634.19;;;1.76;100.00
47054;BME280;32811;52.382;5.270;2023-03-03T00:08:49;102598.84;;;1.56;100.00
47054;BME280;32811;52.382;5.270;2023-03-03T00:11:16;102617.09;;;1.62;100.00
47054;BME280;32811;52.382;5.270;2023-03-03T00:14:01;102633.56;;;1.67;100.00
47054;BME280;32811;52.382;5.270;2023-03-03T00:16:30;102577.34;;;1.27;100.00
47054;BME280;32811;52.382;5.270;2023-03-03T00:18:57;102645.09;;;1.62;100.00
47054;BME280;32811;52.382;5.270;2023-03-03T00:21:29;102664.09;;;1.67;100.00
47054;BME280;32811;52.382;5.270;2023-03-03T00:24:19;102666.44;;;1.64;100.00
47054;BME280;32811;52.382;5.270;2023-03-03T00:26:49;102666.56;;;1.54;100.00
47054;BME280;32811;52.382;5.270;2023-03-03T00:29:35;102670.00;;;1.42;100.00
47054;BME280;32811;52.382;5.270;2023-03-03T00:34:37;102641.09;;;1.05;100.00
47054;BME280;32811;52.382;5.270;2023-03-03T00:37:34;102673.91;;;1.14;100.00
47054;BME280;32811;52.382;5.270;2023-03-03T00:42:38;102672.16;;;1.01;100.00
47054;BME280;32811;52.382;5.270;2023-03-03T00:45:23;102651.22;;;0.81;100.00
47054;BME280;32811;52.382;5.270;2023-03-03T00:47:52;102668.22;;;0.82;100.00
47054;BME280;32811;52.382;5.270;2023-03-03T00:50:29;102684.28;;;0.81;100.00
47054;BME280;32811;52.382;5.270;2023-03-03T00:53:11;102674.50;;;0.64;100.00
47054;BME280;32811;52.382;5.270;2023-03-03T00:55:39;102691.09;;;0.59;100.00
47054;BME280;32811;52.382;5.270;2023-03-03T00:58:06;102676.25;;;0.53;100.00
47054;BME280;32811;52.382;5.270;2023-03-03T01:00:33;102685.88;;;0.57;100.00
47054;BME280;32811;52.382;5.270;2023-03-03T01:03:05;102681.44;;;0.55;100.00
47054;BME280;32811;52.382;5.270;2023-03-03T01:05:32;102688.31;;;0.56;100.00
47054;BME280;32811;52.382;5.270;2023-03-03T01:08:00;102695.28;;;0.58;100.00
47054;BME280;32811;52.382;5.270;2023-03-03T01:10:30;102687.19;;;0.52;100.00
47054;BME280;32811;52.382;5.270;2023-03-03T01:12:57;102685.31;;;0.50;100.00
47054;BME280;32811;52.382;5.270;2023-03-03T01:15:24;102637.84;;;0.27;100.00
47054;BME280;32811;52.382;5.270;2023-03-03T01:17:51;102687.84;;;0.50;100.00
47054;BME280;32811;52.382;5.270;2023-03-03T01:20:17;102699.16;;;0.65;100.00
47054;BME280;32811;52.382;5.270;2023-03-03T01:22:44;102685.66;;;0.54;100.00
47054;BME280;32811;52.382;5.270;2023-03-03T01:25:11;102687.31;;;0.54;100.00
47054;BME280;32811;52.382;5.270;2023-03-03T01:27:38;102661.66;;;0.39;100.00
47054;BME280;32811;52.382;5.270;2023-03-03T01:30:06;102678.22;;;0.46;100.00
47054;BME280;32811;52.382;5.270;2023-03-03T01:32:33;102649.25;;;0.32;100.00
47054;BME280;32811;52.382;5.270;2023-03-03T01:34:59;102662.50;;;0.28;100.00
47054;BME280;32811;52.382;5.270;2023-03-03T01:37:26;102683.44;;;0.47;100.00
47054;BME280;32811;52.382;5.270;2023-03-03T01:39:53;102669.47;;;0.42;100.00
47054;BME280;32811;52.382;5.270;2023-03-03T01:42:21;102668.94;;;0.46;100.00
47054;BME280;32811;52.382;5.270;2023-03-03T01:44:48;102689.06;;;0.55;100.00
47054;BME280;32811;52.382;5.270;2023-03-03T01:47:19;102656.97;;;0.33;100.00
47054;BME280;32811;52.382;5.270;2023-03-03T01:52:44;102695.38;;;0.60;100.00
47054;BME280;32811;52.382;5.270;2023-03-03T01:55:15;102669.72;;;0.45;100.00
47054;BME280;32811;52.382;5.270;2023-03-03T01:57:47;102681.78;;;0.48;100.00
47054;BME280;32811;52.382;5.270;2023-03-03T02:00:17;102685.19;;;0.48;100.00
47054;BME280;32811;52.382;5.270;2023-03-03T02:02:45;102622.13;;;0.09;100.00
47054;BME280;32811;52.382;5.270;2023-03-03T02:05:14;102673.91;;;0.45;100.00
47054;BME280;32811;52.382;5.270;2023-03-03T02:07:42;102695.81;;;0.54;100.00
47054;BME280;32811;52.382;5.270;2023-03-03T02:10:12;102677.44;;;0.47;100.00
47054;BME280;32811;52.382;5.270;2023-03-03T02:12:49;102695.28;;;0.58;100.00
47054;BME280;32811;52.382;5.270;2023-03-03T02:15:23;102694.72;;;0.62;100.00
47054;BME280;32811;52.382;5.270;2023-03-03T02:17:59;102693.03;;;0.51;100.00
47054;BME280;32811;52.382;5.270;2023-03-03T02:20:42;102675.69;;;0.46;100.00
47054;BME280;32811;52.382;5.270;2023-03-03T02:26:01;102694.69;;;0.51;100.00
47054;BME280;32811;52.382;5.270;2023-03-03T02:28:31;102659.06;;;0.27;100.00
47054;BME280;32811;52.382;5.270;2023-03-03T02:30:59;102681.44;;;0.43;100.00
47054;BME280;32811;52.382;5.270;2023-03-03T02:33:27;102684.72;;;0.42;100.00
47054;BME280;32811;52.382;5.270;2023-03-03T02:35:55;102684.72;;;0.42;100.00
47054;BME280;32811;52.382;5.270;2023-03-03T02:38:36;102695.53;;;0.39;100.00
47054;BME280;32811;52.382;5.270;2023-03-03T02:44:00;102691.34;;;0.40;100.00
47054;BME280;32811;52.382;5.270;2023-03-03T02:46:32;102689.59;;;0.39;100.00
47054;BME280;32811;52.382;5.270;2023-03-03T02:49:00;102688.81;;;0.40;100.00
47054;BME280;32811;52.382;5.270;2023-03-03T02:51:26;102687.03;;;0.39;100.00
47054;BME280;32811;52.382;5.270;2023-03-03T02:53:53;102691.91;;;0.36;100.00
47054;BME280;32811;52.382;5.270;2023-03-03T02:56:20;102686.69;;;0.34;100.00
47054;BME280;32811;52.382;5.270;2023-03-03T02:58:46;102686.69;;;0.34;100.00
47054;BME280;32811;52.382;5.270;2023-03-03T03:01:13;102691.66;;;0.33;100.00
47054;BME280;32811;52.382;5.270;2023-03-03T03:03:40;102694.44;;;0.36;100.00
47054;BME280;32811;52.382;5.270;2023-03-03T03:06:07;102687.78;;;0.38;100.00
47054;BME280;32811;52.382;5.270;2023-03-03T03:08:33;102690.00;;;0.33;100.00
47054;BME280;32811;52.382;5.270;2023-03-03T03:11:00;102690.97;;;0.24;100.00
47054;BME280;32811;52.382;5.270;2023-03-03T03:13:27;102687.22;;;0.30;100.00
47054;BME280;32811;52.382;5.270;2023-03-03T03:15:53;102683.69;;;0.28;100.00
47054;BME280;32811;52.382;5.270;2023-03-03T03:18:20;102677.13;;;0.20;100.00
47054;BME280;32811;52.382;5.270;2023-03-03T03:20:47;102688.63;;;0.27;100.00
47054;BME280;32811;52.382;5.270;2023-03-03T03:23:14;102684.91;;;0.33;100.00
47054;BME280;32811;52.382;5.270;2023-03-03T03:25:41;102688.34;;;0.34;100.00
47054;BME280;32811;52.382;5.270;2023-03-03T03:28:13;102693.66;;;0.37;100.00
47054;BME280;32811;52.382;5.270;2023-03-03T03:30:40;102692.88;;;0.38;100.00
47054;BME280;32811;52.382;5.270;2023-03-03T03:33:07;102692.44;;;0.32;100.00
47054;BME280;32811;52.382;5.270;2023-03-03T03:35:34;102690.66;;;0.31;100.00
47054;BME280;32811;52.382;5.270;2023-03-03T03:38:01;102698.75;;;0.37;100.00
47054;BME280;32811;52.382;5.270;2023-03-03T03:40:28;102701.06;;;0.34;100.00
47054;BME280;32811;52.382;5.270;2023-03-03T03:42:55;102708.91;;;0.37;100.00
47054;BME280;32811;52.382;5.270;2023-03-03T03:45:21;102695.97;;;0.34;100.00
47054;BME280;32811;52.382;5.270;2023-03-03T03:47:48;102697.38;;;0.30;100.00
47054;BME280;32811;52.382;5.270;2023-03-03T03:50:15;102698.41;;;0.32;100.00
47054;BME280;32811;52.382;5.270;2023-03-03T03:52:41;102696.97;;;0.36;100.00
47054;BME280;32811;52.382;5.270;2023-03-03T03:55:09;102706.47;;;0.38;100.00
47054;BME280;32811;52.382;5.270;2023-03-03T03:57:36;102708.69;;;0.34;100.00
47054;BME280;32811;52.382;5.270;2023-03-03T04:00:06;102714.97;;;0.39;100.00
47054;BME280;32811;52.382;5.270;2023-03-03T04:02:35;102700.41;;;0.36;100.00
47054;BME280;32811;52.382;5.270;2023-03-03T04:05:02;102708.03;;;0.36;100.00
47054;BME280;32811;52.382;5.270;2023-03-03T04:07:28;102699.75;;;0.39;100.00
47054;BME280;32811;52.382;5.270;2023-03-03T04:09:55;102706.34;;;0.37;100.00
47054;BME280;32811;52.382;5.270;2023-03-03T04:12:22;102687.66;;;0.25;100.00
47054;BME280;32811;52.382;5.270;2023-03-03T04:14:48;102698.88;;;0.38;100.00
47054;BME280;32811;52.382;5.270;2023-03-03T04:17:17;102708.28;;;0.51;100.00
47054;BME280;32811;52.382;5.270;2023-03-03T04:19:44;102706.31;;;0.47;100.00
47054;BME280;32811;52.382;5.270;2023-03-03T04:22:11;102707.06;;;0.46;100.00
47054;BME280;32811;52.382;5.270;2023-03-03T04:24:39;102704.75;;;0.49;100.00
47054;BME280;32811;52.382;5.270;2023-03-03T04:27:07;102705.72;;;0.51;100.00
47054;BME280;32811;52.382;5.270;2023-03-03T04:29:35;102708.06;;;0.48;100.00
47054;BME280;32811;52.382;5.270;2023-03-03T04:32:01;102706.38;;;0.49;100.00
47054;BME280;32811;52.382;5.270;2023-03-03T04:34:28;102709.94;;;0.51;100.00
47054;BME280;32811;52.382;5.270;2023-03-03T04:36:55;102708.41;;;0.53;100.00
47054;BME280;32811;52.382;5.270;2023-03-03T04:39:21;102709.28;;;0.53;100.00
47054;BME280;32811;52.382;5.270;2023-03-03T04:41:48;102708.53;;;0.54;100.00
47054;BME280;32811;52.382;5.270;2023-03-03T04:44:15;102711.81;;;0.53;100.00
47054;BME280;32811;52.382;5.270;2023-03-03T04:46:41;102711.94;;;0.55;100.00
47054;BME280;32811;52.382;5.270;2023-03-03T04:49:08;102707.41;;;0.51;100.00
47054;BME280;32811;52.382;5.270;2023-03-03T04:51:37;102719.16;;;0.60;100.00
47054;BME280;32811;52.382;5.270;2023-03-03T04:54:04;102719.91;;;0.59;100.00
47054;BME280;32811;52.382;5.270;2023-03-03T04:56:30;102717.16;;;0.56;100.00
47054;BME280;32811;52.382;5.270;2023-03-03T04:58:57;102713.06;;;0.58;100.00
47054;BME280;32811;52.382;5.270;2023-03-03T05:01:24;102723.66;;;0.65;100.00
47054;BME280;32811;52.382;5.270;2023-03-03T05:03:50;102712.63;;;0.64;100.00
47054;BME280;32811;52.382;5.270;2023-03-03T05:06:17;102727.47;;;0.70;100.00
47054;BME280;32811;52.382;5.270;2023-03-03T05:08:44;102716.28;;;0.68;100.00
47054;BME280;32811;52.382;5.270;2023-03-03T05:11:12;102707.78;;;0.67;100.00
47054;BME280;32811;52.382;5.270;2023-03-03T05:13:39;102706.13;;;0.68;100.00
47054;BME280;32811;52.382;5.270;2023-03-03T05:16:06;102718.53;;;0.75;100.00
47054;BME280;32811;52.382;5.270;2023-03-03T05:18:33;102706.59;;;0.74;100.00
47054;BME280;32811;52.382;5.270;2023-03-03T05:21:00;102710.09;;;0.76;100.00
47054;BME280;32811;52.382;5.270;2023-03-03T05:23:26;102707.47;;;0.74;100.00
47054;BME280;32811;52.382;5.270;2023-03-03T05:25:53;102711.00;;;0.76;100.00
47054;BME280;32811;52.382;5.270;2023-03-03T05:28:19;102700.59;;;0.73;100.00
47054;BME280;32811;52.382;5.270;2023-03-03T05:30:46;102711.69;;;0.74;100.00
47054;BME280;32811;52.382;5.270;2023-03-03T05:33:14;102709.34;;;0.77;100.00
47054;BME280;32811;52.382;5.270;2023-03-03T05:35:41;102706.59;;;0.74;100.00
47054;BME280;32811;52.382;5.270;2023-03-03T05:38:09;102715.19;;;0.76;100.00
47054;BME280;32811;52.382;5.270;2023-03-03T05:40:36;102715.19;;;0.76;100.00
47054;BME280;32811;52.382;5.270;2023-03-03T05:43:03;102710.88;;;0.75;100.00
47054;BME280;32811;52.382;5.270;2023-03-03T05:45:30;102694.84;;;0.64;100.00
47054;BME280;32811;52.382;5.270;2023-03-03T05:47:56;102714.56;;;0.78;100.00
47054;BME280;32811;52.382;5.270;2023-03-03T05:50:23;102725.59;;;0.79;100.00
47054;BME280;32811;52.382;5.270;2023-03-03T05:52:51;102724.81;;;0.80;100.00
47054;BME280;32811;52.382;5.270;2023-03-03T05:55:18;102730.81;;;0.80;100.00
47054;BME280;32811;52.382;5.270;2023-03-03T05:57:45;102720.84;;;0.72;100.00
47054;BME280;32811;52.382;5.270;2023-03-03T06:00:13;102733.97;;;0.78;100.00
47054;BME280;32811;52.382;5.270;2023-03-03T06:02:40;102730.44;;;0.76;100.00
47054;BME280;32811;52.382;5.270;2023-03-03T06:05:08;102732.22;;;0.77;100.00
47054;BME280;32811;52.382;5.270;2023-03-03T06:07:35;102730.91;;;0.82;100.00
47054;BME280;32811;52.382;5.270;2023-03-03T06:10:02;102727.34;;;0.80;100.00
47054;BME280;32811;52.382;5.270;2023-03-03T06:12:29;102725.81;;;0.82;100.00
47054;BME280;32811;52.382;5.270;2023-03-03T06:14:56;102725.59;;;0.79;100.00
47054;BME280;32811;52.382;5.270;2023-03-03T06:17:22;102722.81;;;0.76;100.00
47054;BME280;32811;52.382;5.270;2023-03-03T06:19:49;102723.06;;;0.79;100.00
47054;BME280;32811;52.382;5.270;2023-03-03T06:22:16;102718.72;;;0.78;100.00
47054;BME280;32811;52.382;5.270;2023-03-03T06:24:42;102723.06;;;0.79;100.00
47054;BME280;32811;52.382;5.270;2023-03-03T06:27:09;102728.81;;;0.88;100.00
47054;BME280;32811;52.382;5.270;2023-03-03T06:29:36;102725.50;;;0.89;100.00
47054;BME280;32811;52.382;5.270;2023-03-03T06:32:02;102731.59;;;0.91;100.00
47054;BME280;32811;52.382;5.270;2023-03-03T06:34:30;102723.53;;;0.85;100.00
47054;BME280;32811;52.382;5.270;2023-03-03T06:36:56;102724.53;;;0.87;100.00
47054;BME280;32811;52.382;5.270;2023-03-03T06:39:23;102729.16;;;0.81;100.00
47054;BME280;32811;52.382;5.270;2023-03-03T06:41:50;102721.41;;;0.79;100.00
47054;BME280;32811;52.382;5.270;2023-03-03T06:44:16;102727.69;;;0.85;100.00
47054;BME280;32811;52.382;5.270;2023-03-03T06:46:43;102716.97;;;0.77;100.00
47054;BME280;32811;52.382;5.270;2023-03-03T06:49:09;102739.00;;;0.88;100.00
47054;BME280;32811;52.382;5.270;2023-03-03T06:51:38;102747.97;;;0.95;100.00
47054;BME280;32811;52.382;5.270;2023-03-03T06:54:17;102747.09;;;0.94;100.00
47054;BME280;32811;52.382;5.270;2023-03-03T06:56:45;102758.47;;;0.99;100.00
47054;BME280;32811;52.382;5.270;2023-03-03T06:59:17;102754.81;;;0.96;100.00
47054;BME280;32811;52.382;5.270;2023-03-03T07:01:48;102754.25;;;1.00;100.00
47054;BME280;32811;52.382;5.270;2023-03-03T07:04:30;102760.47;;;1.03;100.00
47054;BME280;32811;52.382;5.270;2023-03-03T07:07:17;102757.38;;;1.08;100.00
47054;BME280;32811;52.382;5.270;2023-03-03T07:09:48;102760.03;;;1.09;100.00
47054;BME280;32811;52.382;5.270;2023-03-03T07:12:19;102767.22;;;1.15;100.00
47054;BME280;32811;52.382;5.270;2023-03-03T07:17:44;102769.56;;;1.23;100.00
47054;BME280;32811;52.382;5.270;2023-03-03T07:20:32;102769.13;;;1.29;100.00
47054;BME280;32811;52.382;5.270;2023-03-03T07:23:22;102763.38;;;1.32;100.00
47054;BME280;32811;52.382;5.270;2023-03-03T07:25:50;102769.44;;;1.34;100.00
47054;BME280;32811;52.382;5.270;2023-03-03T07:28:28;102774.88;;;1.38;100.00
47054;BME280;32811;52.382;5.270;2023-03-03T07:30:56;102770.44;;;1.24;100.00
47054;BME280;32811;52.382;5.270;2023-03-03T07:33:43;102781.84;;;1.29;100.00
47054;BME280;32811;52.382;5.270;2023-03-03T07:36:29;102781.41;;;1.35;100.00
47054;BME280;32811;52.382;5.270;2023-03-03T07:38:58;102793.94;;;1.43;100.00
47054;BME280;32811;52.382;5.270;2023-03-03T07:41:27;102788.06;;;1.44;100.00
47054;BME280;32811;52.382;5.270;2023-03-03T07:44:06;102781.53;;;1.36;100.00
47054;BME280;32811;52.382;5.270;2023-03-03T07:46:40;102798.56;;;1.49;100.00
47054;BME280;32811;52.382;5.270;2023-03-03T07:51:41;102808.41;;;1.56;100.00
47054;BME280;32811;52.382;5.270;2023-03-03T07:59:54;102797.69;;;1.49;100.00
47054;BME280;32811;52.382;5.270;2023-03-03T08:02:43;102815.53;;;1.72;100.00
47054;BME280;32811;52.382;5.270;2023-03-03T08:05:37;102809.09;;;1.77;100.00
47054;BME280;32811;52.382;5.270;2023-03-03T08:08:21;102818.25;;;1.87;100.00
47054;BME280;32811;52.382;5.270;2023-03-03T08:10:53;102815.84;;;1.89;100.00
47054;BME280;32811;52.382;5.270;2023-03-03T08:18:47;102815.31;;;2.29;100.00
47054;BME280;32811;52.382;5.270;2023-03-03T08:21:22;102824.81;;;2.44;100.00
47054;BME280;32811;52.382;5.270;2023-03-03T08:23:50;102825.28;;;2.38;100.00
47054;BME280;32811;52.382;5.270;2023-03-03T08:26:20;102818.22;;;2.22;100.00
47054;BME280;32811;52.382;5.270;2023-03-03T08:28:47;102803.59;;;2.20;100.00
47054;BME280;32811;52.382;5.270;2023-03-03T08:31:16;102736.09;;;1.90;100.00
47054;BME280;32811;52.382;5.270;2023-03-03T08:34:05;102789.53;;;2.25;100.00
47054;BME280;32811;52.382;5.270;2023-03-03T08:36:32;102812.97;;;2.44;100.00
47054;BME280;32811;52.382;5.270;2023-03-03T08:39:00;102822.78;;;2.52;100.00
47054;BME280;32811;52.382;5.270;2023-03-03T08:41:27;102783.75;;;2.27;100.00
47054;BME280;32811;52.382;5.270;2023-03-03T08:43:54;102772.59;;;2.14;100.00
47054;BME280;32811;52.382;5.270;2023-03-03T08:46:21;102792.63;;;2.33;100.00
47054;BME280;32811;52.382;5.270;2023-03-03T08:48:48;102823.66;;;2.52;100.00
47054;BME280;32811;52.382;5.270;2023-03-03T08:51:15;102825.22;;;2.62;100.00
47054;BME280;32811;52.382;5.270;2023-03-03T08:53:41;102754.59;;;2.36;100.00
47054;BME280;32811;52.382;5.270;2023-03-03T08:56:08;102814.97;;;2.74;100.00
47054;BME280;32811;52.382;5.270;2023-03-03T08:58:35;102756.63;;;2.53;100.00
47054;BME280;32811;52.382;5.270;2023-03-03T09:01:05;102818.41;;;2.99;100.00
47054;BME280;32811;52.382;5.270;2023-03-03T09:03:31;102768.66;;;2.93;100.00
47054;BME280;32811;52.382;5.270;2023-03-03T09:06:01;102813.69;;;3.05;100.00
47054;BME280;32811;52.382;5.270;2023-03-03T09:08:28;102728.78;;;2.56;100.00
47054;BME280;32811;52.382;5.270;2023-03-03T09:10:54;102769.53;;;2.93;100.00
47054;BME280;32811;52.382;5.270;2023-03-03T09:13:21;102815.69;;;3.23;100.00
47054;BME280;32811;52.382;5.270;2023-03-03T09:15:51;102759.59;;;2.84;100.00
47054;BME280;32811;52.382;5.270;2023-03-03T09:18:37;102782.09;;;3.03;100.00
47054;BME280;32811;52.382;5.270;2023-03-03T09:21:25;102825.78;;;3.21;100.00
47054;BME280;32811;52.382;5.270;2023-03-03T09:23:58;102821.69;;;3.37;100.00
47054;BME280;32811;52.382;5.270;2023-03-03T09:34:24;102823.59;;;3.79;100.00
47054;BME280;32811;52.382;5.270;2023-03-03T09:36:54;102717.94;;;3.10;100.00
47054;BME280;32811;52.382;5.270;2023-03-03T09:39:24;102809.78;;;3.76;100.00
47054;BME280;32811;52.382;5.270;2023-03-03T09:45:01;102738.00;;;3.44;100.00
47054;BME280;32811;52.382;5.270;2023-03-03T09:58:46;102815.16;;;3.93;100.00
47054;BME280;32811;52.382;5.270;2023-03-03T10:10:49;102719.13;;;3.42;100.00
47054;BME280;32811;52.382;5.270;2023-03-03T10:37:45;102826.25;;;4.77;100.00
47054;BME280;32811;52.382;5.270;2023-03-03T10:51:32;102824.47;;;4.48;100.00
47054;BME280;32811;52.382;5.270;2023-03-03T11:05:40;102815.63;;;5.29;100.00
47054;BME280;32811;52.382;5.270;2023-03-03T11:08:16;102815.03;;;5.48;100.00
47054;BME280;32811;52.382;5.270;2023-03-03T11:10:56;102811.03;;;5.68;100.00
47054;BME280;32811;52.382;5.270;2023-03-03T11:16:44;102812.31;;;6.22;100.00
47054;BME280;32811;52.382;5.270;2023-03-03T11:22:17;102794.22;;;6.35;100.00
47054;BME280;32811;52.382;5.270;2023-03-03T11:25:06;102799.06;;;6.62;100.00
47054;BME280;32811;52.382;5.270;2023-03-03T11:27:51;102805.06;;;6.79;100.00
47054;BME280;32811;52.382;5.270;2023-03-03T11:33:58;102796.56;;;6.31;100.00
47054;BME280;32811;52.382;5.270;2023-03-03T11:36:36;102800.31;;;6.21;100.00
47054;BME280;32811;52.382;5.270;2023-03-03T11:39:10;102802.06;;;6.06;100.00
47054;BME280;32811;52.382;5.270;2023-03-03T11:45:16;102751.34;;;5.54;100.00
47054;BME280;32811;52.382;5.270;2023-03-03T11:57:17;102706.63;;;6.11;100.00
47054;BME280;32811;52.382;5.270;2023-03-03T12:03:28;102707.50;;;5.95;100.00
47054;BME280;32811;52.382;5.270;2023-03-03T12:06:50;102789.03;;;6.50;100.00
47054;BME280;32811;52.382;5.270;2023-03-03T12:10:13;102784.94;;;6.37;100.00
47054;BME280;32811;52.382;5.270;2023-03-03T12:16:57;102783.00;;;6.17;100.00
47054;BME280;32811;52.382;5.270;2023-03-03T12:19:54;102739.06;;;5.94;100.00
47054;BME280;32811;52.382;5.270;2023-03-03T12:26:10;102780.81;;;6.08;100.00
47054;BME280;32811;52.382;5.270;2023-03-03T12:28:47;102705.25;;;5.54;100.00
47054;BME280;32811;52.382;5.270;2023-03-03T12:34:43;102763.97;;;5.97;100.00
47054;BME280;32811;52.382;5.270;2023-03-03T12:40:07;102773.38;;;6.13;100.00
47054;BME280;32811;52.382;5.270;2023-03-03T12:51:06;102765.06;;;6.17;100.00
47054;BME280;32811;52.382;5.270;2023-03-03T12:54:21;102724.66;;;5.96;100.00
47054;BME280;32811;52.382;5.270;2023-03-03T12:57:05;102751.84;;;6.26;100.00
47054;BME280;32811;52.382;5.270;2023-03-03T13:02:41;102746.72;;;6.26;100.00
47054;BME280;32811;52.382;5.270;2023-03-03T13:07:51;102752.06;;;6.47;100.00
47054;BME280;32811;52.382;5.270;2023-03-03T13:10:38;102742.53;;;6.60;100.00
47054;BME280;32811;52.382;5.270;2023-03-03T13:13:20;102752.94;;;6.47;100.00
47054;BME280;32811;52.382;5.270;2023-03-03T13:19:15;102757.19;;;6.47;100.00
47054;BME280;32811;52.382;5.270;2023-03-03T13:21:38;102745.34;;;6.49;100.00
47054;BME280;32811;52.382;5.270;2023-03-03T13:24:26;102760.88;;;6.52;100.00
47054;BME280;32811;52.382;5.270;2023-03-03T13:27:10;102760.81;;;6.67;100.00
47054;BME280;32811;52.382;5.270;2023-03-03T13:29:45;102757.84;;;6.59;100.00
47054;BME280;32811;52.382;5.270;2023-03-03T13:32:28;102758.81;;;6.61;100.00
47054;BME280;32811;52.382;5.270;2023-03-03T13:37:42;102759.09;;;6.67;100.00
47054;BME280;32811;52.382;5.270;2023-03-03T13:42:44;102762.97;;;6.42;100.00
47054;BME280;32811;52.382;5.270;2023-03-03T13:45:22;102759.59;;;6.27;100.00
47054;BME280;32811;52.382;5.270;2023-03-03T13:51:08;102746.88;;;6.29;100.00
47054;BME280;32811;52.382;5.270;2023-03-03T13:57:24;102741.09;;;6.16;100.00
47054;BME280;32811;52.382;5.270;2023-03-03T14:05:33;102752.41;;;6.36;100.00
47054;BME280;32811;52.382;5.270;2023-03-03T14:12:09;102753.94;;;6.16;100.00
47054;BME280;32811;52.382;5.270;2023-03-03T14:14:41;102736.75;;;6.15;100.00
47054;BME280;32811;52.382;5.270;2023-03-03T14:17:31;102747.59;;;6.26;100.00
47054;BME280;32811;52.382;5.270;2023-03-03T14:20:23;102747.00;;;6.15;100.00
47054;BME280;32811;52.382;5.270;2023-03-03T14:22:54;102727.63;;;6.04;100.00
47054;BME280;32811;52.382;5.270;2023-03-03T14:25:24;102704.22;;;5.98;100.00
47054;BME280;32811;52.382;5.270;2023-03-03T14:28:20;102690.44;;;5.96;100.00
47054;BME280;32811;52.382;5.270;2023-03-03T14:30:47;102649.00;;;5.72;100.00
47054;BME280;32811;52.382;5.270;2023-03-03T14:33:30;102626.78;;;5.56;100.00
47054;BME280;32811;52.382;5.270;2023-03-03T14:46:42;102727.09;;;6.10;100.00
47054;BME280;32811;52.382;5.270;2023-03-03T14:49:30;102728.03;;;6.12;100.00
47054;BME280;32811;52.382;5.270;2023-03-03T14:52:10;102715.13;;;6.10;100.00
47054;BME280;32811;52.382;5.270;2023-03-03T14:54:49;102718.56;;;6.11;100.00
47054;BME280;32811;52.382;5.270;2023-03-03T15:03:30;102714.25;;;6.10;100.00
47054;BME280;32811;52.382;5.270;2023-03-03T15:05:34;102713.06;;;6.03;100.00
47054;BME280;32811;52.382;5.270;2023-03-03T15:21:45;102640.34;;;5.70;100.00
47054;BME280;32811;52.382;5.270;2023-03-03T15:24:56;102616.47;;;5.54;100.00
47054;BME280;32811;52.382;5.270;2023-03-03T15:27:44;102646.59;;;5.75;100.00
47054;BME280;32811;52.382;5.270;2023-03-03T15:30:28;102692.31;;;5.98;100.00
47054;BME280;32811;52.382;5.270;2023-03-03T15:33:06;102584.19;;;5.41;100.00
47054;BME280;32811;52.382;5.270;2023-03-03T15:38:38;102685.50;;;5.99;100.00
47054;BME280;32811;52.382;5.270;2023-03-03T15:41:14;102682.84;;;5.97;100.00
47054;BME280;32811;52.382;5.270;2023-03-03T15:43:49;102682.13;;;6.00;100.00
47054;BME280;32811;52.382;5.270;2023-03-03T15:58:17;102686.00;;;5.93;100.00
47054;BME280;32811;52.382;5.270;2023-03-03T16:04:03;102597.63;;;5.37;100.00
47054;BME280;32811;52.382;5.270;2023-03-03T16:06:53;102567.41;;;5.15;100.00
47054;BME280;32811;52.382;5.270;2023-03-03T16:27:42;102667.84;;;5.57;100.00
47054;BME280;32811;52.382;5.270;2023-03-03T16:36:27;102667.97;;;5.44;100.00
47054;BME280;32811;52.382;5.270;2023-03-03T16:44:32;102677.19;;;5.40;100.00
47054;BME280;32811;52.382;5.270;2023-03-03T16:50:14;102686.09;;;5.47;100.00
47054;BME280;32811;52.382;5.270;2023-03-03T16:52:48;102685.56;;;5.38;100.00
47054;BME280;32811;52.382;5.270;2023-03-03T16:55:27;102685.88;;;5.28;100.00
47054;BME280;32811;52.382;5.270;2023-03-03T16:58:21;102688.84;;;5.35;100.00
47054;BME280;32811;52.382;5.270;2023-03-03T17:06:48;102691.34;;;5.34;100.00
47054;BME280;32811;52.382;5.270;2023-03-03T17:09:26;102692.59;;;5.26;100.00
47054;BME280;32811;52.382;5.270;2023-03-03T17:24:52;102699.03;;;5.19;100.00
47054;BME280;32811;52.382;5.270;2023-03-03T17:38:30;102707.22;;;5.13;100.00
47054;BME280;32811;52.382;5.270;2023-03-03T17:44:02;102622.06;;;4.70;100.00
47054;BME280;32811;52.382;5.270;2023-03-03T17:47:10;102670.97;;;4.91;100.00
47054;BME280;32811;52.382;5.270;2023-03-03T17:52:45;102713.06;;;5.11;100.00
47054;BME280;32811;52.382;5.270;2023-03-03T17:55:30;102709.63;;;5.10;100.00
47054;BME280;32811;52.382;5.270;2023-03-03T17:58:28;102718.81;;;5.07;100.00
47054;BME280;32811;52.382;5.270;2023-03-03T18:01:48;102660.78;;;4.76;100.00
47054;BME280;32811;52.382;5.270;2023-03-03T18:07:35;102680.06;;;4.71;100.00
47054;BME280;32811;52.382;5.270;2023-03-03T18:13:36;102730.66;;;5.05;100.00
47054;BME280;32811;52.382;5.270;2023-03-03T18:19:37;102728.50;;;4.97;100.00
47054;BME280;32811;52.382;5.270;2023-03-03T18:22:21;102725.44;;;5.03;100.00
47054;BME280;32811;52.382;5.270;2023-03-03T18:25:06;102627.84;;;4.37;100.00
47054;BME280;32811;52.382;5.270;2023-03-03T18:27:37;102688.38;;;4.67;100.00
47054;BME280;32811;52.382;5.270;2023-03-03T18:35:44;102629.09;;;4.29;100.00
47054;BME280;32811;52.382;5.270;2023-03-03T18:46:52;102700.03;;;4.76;100.00
47054;BME280;32811;52.382;5.270;2023-03-03T18:52:27;102729.16;;;4.93;100.00